Terminal Aerodrome Forecast
Issued by NWS Medford, OR

Home | Current Version | Previous Version | Text Only | Print | Product List | Glossary On
Versions: 1 2 3 4 5 6 7 8 9 10 11 12 13 14 15 16 17 18 19 20
000
FTUS46 KMFR 261741
TAFMFR
TAF
KMFR 261741Z 2618/2718 00000KT 1/4SM FG VV001
     FM261930 00000KT 1SM BR OVC002
     FM262000 VRB03KT P6SM FEW250
     FM270900 00000KT 2SM BR OVC002
     FM271100 00000KT 1/4SM FG VV002=

USA.gov is the U.S. government's official web portal to all federal, state and local government web resources and services.